Time;durP1;ratioP1;P1;durP2;ratioP2;P2;SDS_P1;SDS_P2;PMS_P1;PMS_P2;Temp;Humidity;BMP_temperature;BMP_pressure;BME280_temperature;BME280_humidity;BME280_pressure;Samples;Min_cycle;Max_cycle;Signal;HPM_P1;HPM_P2
2024/01/02 00:00:14;;;;;;;23.92;3.67;;;;;;;10.54;100.00;97942.69;6091865;23;20006;-89
2024/01/02 00:02:39;;;;;;;32.30;4.18;;;;;;;10.53;100.00;97927.34;6092031;23;20500;-89
2024/01/02 00:05:05;;;;;;;24.55;4.15;;;;;;;10.55;100.00;97926.22;6091635;23;20089;-89
2024/01/02 00:07:30;;;;;;;29.17;3.97;;;;;;;10.53;100.00;97923.00;6091846;23;20088;-89
2024/01/02 00:09:56;;;;;;;19.60;4.22;;;;;;;10.51;100.00;97930.09;6091680;23;20070;-89
2024/01/02 00:12:21;;;;;;;25.05;3.45;;;;;;;10.43;100.00;97938.56;6091871;23;20394;-89
2024/01/02 00:14:47;;;;;;;27.88;4.40;;;;;;;10.36;100.00;97940.09;6090319;23;20430;-89
2024/01/02 00:17:12;;;;;;;27.25;2.63;;;;;;;10.44;100.00;97934.22;6091747;23;20006;-88
2024/01/02 00:19:37;;;;;;;23.10;4.38;;;;;;;10.41;100.00;97950.81;6090256;23;20048;-89
2024/01/02 00:22:03;;;;;;;18.13;3.28;;;;;;;10.31;100.00;97944.88;6091867;23;20014;-89
2024/01/02 00:24:28;;;;;;;24.08;3.50;;;;;;;10.29;100.00;97954.56;6091613;23;20030;-90
2024/01/02 00:26:54;;;;;;;19.73;2.78;;;;;;;10.30;100.00;97942.47;6091986;23;20164;-88
2024/01/02 00:29:19;;;;;;;25.98;3.95;;;;;;;10.26;100.00;97942.72;6092190;23;20002;-89
2024/01/02 00:31:44;;;;;;;21.13;3.67;;;;;;;10.30;100.00;97945.06;6091533;23;20029;-89
2024/01/02 00:34:11;;;;;;;24.35;3.13;;;;;;;10.30;100.00;97957.94;6091915;23;20429;-89
2024/01/02 00:36:37;;;;;;;33.78;3.83;;;;;;;10.23;100.00;97937.06;6091570;23;19994;-89
2024/01/02 00:39:02;;;;;;;21.20;3.63;;;;;;;10.19;100.00;97953.78;6091783;23;20082;-89
2024/01/02 00:41:28;;;;;;;26.63;4.55;;;;;;;10.21;100.00;97954.44;6091576;23;20003;-89
2024/01/02 00:43:53;;;;;;;18.67;3.30;;;;;;;10.21;100.00;97950.09;6090527;23;19999;-88
2024/01/02 00:46:18;;;;;;;27.20;7.00;;;;;;;10.22;100.00;97963.81;6091838;23;20009;-88
2024/01/02 00:48:44;;;;;;;35.03;5.25;;;;;;;10.23;100.00;97963.66;6091904;23;20026;-89
2024/01/02 00:51:11;;;;;;;28.80;4.30;;;;;;;10.19;100.00;97972.66;6091607;23;20018;-88
2024/01/02 00:53:36;;;;;;;29.55;4.70;;;;;;;10.19;100.00;97972.66;6091864;23;20489;-89
2024/01/02 00:56:02;;;;;;;28.83;3.38;;;;;;;10.25;100.00;97979.78;6091654;23;20037;-89
2024/01/02 00:58:27;;;;;;;36.60;5.30;;;;;;;10.22;100.00;97994.75;6089921;23;20072;-88
2024/01/02 01:00:53;;;;;;;36.25;5.28;;;;;;;10.18;100.00;97980.53;6091748;23;20006;-88
2024/01/02 01:03:18;;;;;;;39.70;6.35;;;;;;;10.21;100.00;97986.19;6090173;23;20013;-89
2024/01/02 01:05:43;;;;;;;35.97;4.70;;;;;;;10.15;100.00;97986.78;6092030;23;20009;-88
2024/01/02 01:08:09;;;;;;;31.45;4.93;;;;;;;10.20;100.00;97994.88;6091200;23;20006;-89
2024/01/02 01:10:34;;;;;;;42.08;4.78;;;;;;;10.11;100.00;97990.59;6091830;23;20441;-89
2024/01/02 01:12:59;;;;;;;32.80;4.20;;;;;;;10.15;100.00;97999.66;6091582;23;20010;-89
2024/01/02 01:15:25;;;;;;;40.83;6.13;;;;;;;10.12;100.00;97984.50;6091331;23;20342;-89
2024/01/02 01:17:50;;;;;;;30.60;4.10;;;;;;;10.06;100.00;97992.78;6091749;23;20427;-89
2024/01/02 01:20:16;;;;;;;35.25;6.43;;;;;;;10.03;100.00;97991.31;6091754;23;20017;-89
2024/01/02 01:22:42;;;;;;;36.88;5.13;;;;;;;10.07;100.00;98002.13;6090125;23;20011;-89
2024/01/02 01:25:07;;;;;;;32.33;5.07;;;;;;;10.05;100.00;97997.16;6090003;23;20006;-88
2024/01/02 01:27:32;;;;;;;39.00;6.10;;;;;;;10.04;100.00;97990.34;6091443;23;20013;-88
2024/01/02 01:29:58;;;;;;;49.10;6.22;;;;;;;10.09;100.00;97982.19;6091518;23;20002;-88
2024/01/02 01:32:23;;;;;;;39.50;5.95;;;;;;;10.06;100.00;97992.78;6091702;23;20081;-89
2024/01/02 01:34:49;;;;;;;40.35;6.38;;;;;;;10.11;100.00;97987.22;6091552;23;20081;-89
2024/01/02 01:37:14;;;;;;;44.35;6.05;;;;;;;9.99;100.00;97961.63;6091401;23;20003;-88
2024/01/02 01:39:39;;;;;;;37.90;5.78;;;;;;;10.00;100.00;97985.66;6091478;23;20013;-89
2024/01/02 01:42:05;;;;;;;37.88;7.53;;;;;;;10.00;100.00;98014.00;6090999;23;20002;-89
2024/01/02 01:44:30;;;;;;;31.17;5.85;;;;;;;10.02;100.00;98005.19;6091375;23;20105;-89
2024/01/02 01:46:56;;;;;;;52.00;8.85;;;;;;;10.05;100.00;98007.47;6089615;23;20442;-89
2024/01/02 01:49:22;;;;;;;42.83;6.22;;;;;;;10.04;100.00;98010.16;6089772;23;20082;-89
2024/01/02 01:51:50;;;;;;;37.58;6.43;;;;;;;10.05;100.00;97999.72;6089747;23;20002;-88
2024/01/02 01:54:16;;;;;;;50.72;6.15;;;;;;;10.02;100.00;97997.44;6091515;23;20081;-88
2024/01/02 01:56:43;;;;;;;43.28;7.50;;;;;;;10.04;100.00;97999.84;6091292;23;20056;-89
2024/01/02 01:59:09;;;;;;;47.35;6.50;;;;;;;10.04;100.00;97989.53;6091168;23;20003;-89
2024/01/02 02:01:36;;;;;;;42.30;8.25;;;;;;;9.98;100.00;97990.13;6091234;23;20011;-89
2024/01/02 02:04:03;;;;;;;42.15;6.25;;;;;;;10.01;100.00;98000.16;6089655;23;20052;-89
2024/01/02 02:06:28;;;;;;;42.15;6.43;;;;;;;9.96;100.00;98007.50;6090962;23;20002;-89
2024/01/02 02:08:53;;;;;;;45.40;6.50;;;;;;;9.99;100.00;98008.03;6091087;23;20013;-89
2024/01/02 02:11:20;;;;;;;38.85;5.60;;;;;;;10.06;100.00;98024.53;6091221;23;20006;-89
2024/01/02 02:13:46;;;;;;;37.58;5.65;;;;;;;10.08;100.00;98032.94;6091685;23;20003;-88
2024/01/02 02:16:12;;;;;;;39.60;5.60;;;;;;;10.07;100.00;98040.78;6090853;23;20067;-88
2024/01/02 02:18:37;;;;;;;42.72;5.90;;;;;;;10.07;100.00;98026.16;6091165;23;20022;-89
2024/01/02 02:21:03;;;;;;;38.60;6.93;;;;;;;10.09;100.00;98031.16;6091191;23;20009;-88
2024/01/02 02:23:28;;;;;;;41.25;6.28;;;;;;;10.00;100.00;98029.47;6090919;23;20003;-88
2024/01/02 02:25:53;;;;;;;39.38;6.03;;;;;;;10.03;100.00;98029.16;6090949;23;20034;-89
2024/01/02 02:28:19;;;;;;;38.30;5.07;;;;;;;10.07;100.00;98022.75;6091254;23;20026;-89
2024/01/02 02:30:44;;;;;;;50.38;6.75;;;;;;;10.04;100.00;98020.47;6090962;23;20014;-88
2024/01/02 02:33:09;;;;;;;34.13;5.75;;;;;;;10.02;100.00;98022.38;6091040;23;20013;-88
2024/01/02 02:35:35;;;;;;;40.47;6.07;;;;;;;10.09;100.00;98018.28;6090835;23;19999;-89
2024/01/02 02:38:00;;;;;;;42.15;7.03;;;;;;;10.06;100.00;98026.31;6091027;23;20006;-89
2024/01/02 02:40:26;;;;;;;47.47;7.22;;;;;;;10.05;100.00;98015.19;6091108;23;20161;-88
2024/01/02 02:42:51;;;;;;;38.47;5.53;;;;;;;10.02;100.00;98022.38;6091412;23;20007;-88
2024/01/02 02:45:17;;;;;;;36.63;6.22;;;;;;;10.04;100.00;98012.75;6089199;23;20046;-89
2024/01/02 02:47:42;;;;;;;37.35;5.53;;;;;;;10.01;100.00;98011.25;6090719;23;20330;-88
2024/01/02 02:50:08;;;;;;;32.35;6.50;;;;;;;10.03;100.00;98016.28;6090799;23;20002;-88
2024/01/02 02:52:33;;;;;;;42.88;5.75;;;;;;;10.06;100.00;98028.88;6090874;23;20448;-88
2024/01/02 02:54:59;;;;;;;34.92;5.53;;;;;;;10.06;100.00;98028.88;6091985;23;20491;-89
2024/01/02 02:57:25;;;;;;;34.28;6.20;;;;;;;9.99;100.00;98032.97;6092103;23;20426;-88
2024/01/02 02:59:51;;;;;;;44.38;7.90;;;;;;;10.05;100.00;98033.22;6092092;23;20010;-88
2024/01/02 03:02:16;;;;;;;39.30;8.95;;;;;;;10.00;100.00;98032.03;6090612;23;20070;-89
2024/01/02 03:04:42;;;;;;;38.45;5.72;;;;;;;9.98;100.00;98023.63;6092034;23;20010;-88
2024/01/02 03:07:09;;;;;;;32.47;5.13;;;;;;;9.98;100.00;98036.53;6092151;23;20237;-89
2024/01/02 03:09:35;;;;;;;39.08;5.20;;;;;;;9.97;100.00;98024.56;6090519;23;19998;-89
2024/01/02 03:12:00;;;;;;;22.65;4.68;;;;;;;9.93;100.00;98021.50;6090354;23;20014;-89
2024/01/02 03:14:25;;;;;;;34.08;5.20;;;;;;;9.95;100.00;98027.31;6091750;23;20006;-89
2024/01/02 03:16:51;;;;;;;31.65;5.57;;;;;;;9.94;100.00;98027.44;6092153;23;20438;-89
2024/01/02 03:19:16;;;;;;;31.20;5.88;;;;;;;9.95;100.00;98026.47;6092066;23;19999;-89
2024/01/02 03:21:41;;;;;;;28.13;5.25;;;;;;;9.92;100.00;98022.44;6092189;23;20002;-89
2024/01/02 03:24:07;;;;;;;34.88;4.93;;;;;;;9.97;100.00;98020.25;6091896;23;20002;-89
2024/01/02 03:26:32;;;;;;;31.13;6.72;;;;;;;9.95;100.00;98018.75;6091994;23;20006;-88
2024/01/02 03:28:57;;;;;;;34.35;5.30;;;;;;;9.91;100.00;98022.59;6092061;23;20009;-89
2024/01/02 03:31:23;;;;;;;33.78;4.95;;;;;;;9.95;100.00;98022.16;6092574;23;20011;-89
2024/01/02 03:33:48;;;;;;;25.13;4.78;;;;;;;9.96;100.00;98022.97;6092130;23;20003;-89
2024/01/02 03:36:18;;;;;;;34.90;5.47;;;;;;;9.94;100.00;98020.53;6091786;23;20007;-89
2024/01/02 03:38:45;;;;;;;29.27;5.82;;;;;;;9.91;100.00;98017.44;6092266;23;20007;-89
2024/01/02 03:41:10;;;;;;;28.58;4.75;;;;;;;9.91;100.00;98014.88;6092265;23;20424;-89
2024/01/02 03:43:35;;;;;;;31.58;5.13;;;;;;;9.88;100.00;97999.69;6092182;23;20038;-89
2024/01/02 03:46:00;;;;;;;34.40;4.70;;;;;;;9.90;100.00;97992.59;6092515;23;20002;-89
2024/01/02 03:48:26;;;;;;;38.38;4.78;;;;;;;9.83;100.00;97982.91;6092255;23;20050;-89
2024/01/02 03:50:51;;;;;;;30.27;5.15;;;;;;;9.91;100.00;97983.94;6092055;23;20314;-89
2024/01/02 03:53:17;;;;;;;47.40;5.30;;;;;;;9.99;100.00;97981.44;6092506;23;20501;-89
2024/01/02 03:55:42;;;;;;;33.28;4.68;;;;;;;9.99;100.00;97971.13;6092128;23;20002;-89
2024/01/02 03:58:07;;;;;;;39.55;5.68;;;;;;;9.92;100.00;97981.19;6092148;23;20049;-89
2024/01/02 04:00:33;;;;;;;26.00;5.15;;;;;;;9.96;100.00;97986.91;6092560;23;20006;-90
2024/01/02 04:02:59;;;;;;;41.38;6.53;;;;;;;9.87;100.00;97983.41;6092417;23;20006;-88
2024/01/02 04:05:24;;;;;;;35.05;4.97;;;;;;;9.93;100.00;97993.16;6091866;23;20077;-89
2024/01/02 04:07:50;;;;;;;27.17;5.13;;;;;;;9.93;100.00;97985.41;6091991;23;20425;-89
2024/01/02 04:10:15;;;;;;;28.67;4.40;;;;;;;9.91;100.00;97983.94;6092106;23;19990;-89
2024/01/02 04:12:40;;;;;;;35.97;6.90;;;;;;;9.91;100.00;97965.91;6092213;23;20002;-90
2024/01/02 04:15:06;;;;;;;29.80;4.13;;;;;;;9.88;100.00;97974.75;6090409;23;20310;-89
2024/01/02 04:17:31;;;;;;;39.85;4.95;;;;;;;9.86;100.00;97972.28;6092147;23;20461;-90
2024/01/02 04:19:57;;;;;;;26.88;4.57;;;;;;;9.90;100.00;97961.69;6090760;23;20064;-89
2024/01/02 04:22:22;;;;;;;40.85;7.20;;;;;;;9.84;100.00;97963.88;6091959;23;20010;-90
2024/01/02 04:24:48;;;;;;;45.05;6.30;;;;;;;9.83;100.00;97951.97;6090378;23;20069;-90
2024/01/02 04:27:13;;;;;;;45.80;6.07;;;;;;;9.82;100.00;97947.75;6092036;23;19999;-90
2024/01/02 04:29:39;;;;;;;42.65;6.00;;;;;;;9.85;100.00;97954.41;6091708;23;20014;-89
2024/01/02 04:32:05;;;;;;;36.63;5.93;;;;;;;9.86;100.00;97956.84;6092121;23;20003;-90
2024/01/02 04:34:30;;;;;;;44.50;6.97;;;;;;;9.86;100.00;97945.72;6090378;23;20013;-90
2024/01/02 04:36:55;;;;;;;39.63;5.95;;;;;;;9.96;100.00;97953.41;6092229;23;20006;-90
2024/01/02 04:39:21;;;;;;;42.88;5.53;;;;;;;10.00;100.00;97965.84;6092113;23;20010;-89
2024/01/02 04:41:46;;;;;;;42.67;5.70;;;;;;;9.98;100.00;97965.19;6090412;23;20093;-90
2024/01/02 04:44:11;;;;;;;42.78;7.28;;;;;;;9.94;100.00;97965.59;6090203;23;20013;-89
2024/01/02 04:46:37;;;;;;;40.58;6.47;;;;;;;9.95;100.00;97959.50;6091912;23;20030;-90
2024/01/02 04:49:02;;;;;;;36.60;6.32;;;;;;;9.95;100.00;97954.34;6091779;23;20398;-90
2024/01/02 04:51:28;;;;;;;26.23;5.30;;;;;;;9.98;100.00;97954.06;6091901;23;20010;-90
2024/01/02 04:53:53;;;;;;;43.92;6.50;;;;;;;9.94;100.00;97947.56;6091510;23;20010;-90
2024/01/02 04:56:19;;;;;;;47.17;6.05;;;;;;;9.96;100.00;97956.78;6091684;23;20060;-90
2024/01/02 04:58:44;;;;;;;38.83;6.95;;;;;;;10.00;100.00;97947.00;6091860;23;20422;-90
2024/01/02 05:01:10;;;;;;;47.55;7.47;;;;;;;9.94;100.00;97945.81;6091739;23;20006;-90
2024/01/02 05:03:35;;;;;;;34.47;6.25;;;;;;;9.96;100.00;97943.09;6089971;23;20007;-90
2024/01/02 05:06:00;;;;;;;36.22;7.30;;;;;;;9.95;100.00;97941.44;6091507;23;20006;-89
2024/01/02 05:08:26;;;;;;;39.65;5.88;;;;;;;9.97;100.00;97947.28;6090111;23;20006;-90
2024/01/02 05:10:52;;;;;;;46.08;6.35;;;;;;;9.92;100.00;97939.97;6090166;23;20209;-90
2024/01/02 05:13:18;;;;;;;40.60;6.72;;;;;;;9.96;100.00;97940.50;6091539;23;20003;-89
2024/01/02 05:15:43;;;;;;;43.55;6.38;;;;;;;9.96;100.00;97930.22;6089853;23;20018;-89
2024/01/02 05:18:09;;;;;;;27.67;5.05;;;;;;;9.96;100.00;97933.59;6091938;23;20030;-89
2024/01/02 05:20:34;;;;;;;43.88;7.15;;;;;;;9.93;100.00;97926.16;6090031;23;20022;-89
2024/01/02 05:23:03;;;;;;;34.95;4.82;;;;;;;9.93;100.00;97920.19;6091774;23;20137;-89
2024/01/02 05:25:31;;;;;;;30.95;4.97;;;;;;;9.99;100.00;97929.91;6090121;23;20025;-89
2024/01/02 05:27:57;;;;;;;29.77;4.43;;;;;;;9.90;100.00;97915.31;6091842;23;20074;-89
2024/01/02 05:30:23;;;;;;;41.47;5.35;;;;;;;10.00;100.00;97916.09;6091312;23;20555;-89
2024/01/02 05:32:49;;;;;;;33.92;5.30;;;;;;;10.03;100.00;97913.22;6091457;23;20422;-87
2024/01/02 05:35:14;;;;;;;33.95;5.07;;;;;;;9.96;100.00;97917.31;6089674;23;20049;-88
2024/01/02 05:37:39;;;;;;;36.72;5.47;;;;;;;9.91;100.00;97896.34;6091521;23;19994;-89
2024/01/02 05:40:05;;;;;;;30.98;5.38;;;;;;;9.91;100.00;97896.34;6091393;23;20029;-89
2024/01/02 05:42:32;;;;;;;31.85;5.05;;;;;;;9.86;100.00;97900.16;6091662;23;19994;-89
2024/01/02 05:44:57;;;;;;;44.22;5.20;;;;;;;9.84;100.00;97907.22;6089949;23;20013;-88
2024/01/02 05:47:22;;;;;;;27.65;4.38;;;;;;;9.78;100.00;97892.34;6091335;23;20013;-86
2024/01/02 05:49:48;;;;;;;44.92;6.50;;;;;;;9.78;100.00;97897.50;6089821;23;20026;-89
2024/01/02 05:52:13;;;;;;;41.40;6.10;;;;;;;9.74;100.00;97893.59;6091362;23;20034;-89
2024/01/02 05:54:38;;;;;;;31.17;5.22;;;;;;;9.75;100.00;97884.09;6091283;23;20029;-89
2024/01/02 05:57:04;;;;;;;40.30;5.30;;;;;;;9.71;100.00;97886.16;6091322;23;20002;-90
2024/01/02 05:59:29;;;;;;;35.30;4.93;;;;;;;9.69;100.00;97872.63;6089702;23;20003;-89
2024/01/02 06:01:55;;;;;;;43.00;7.40;;;;;;;9.67;100.00;97878.88;6091088;23;20038;-88
2024/01/02 06:04:20;;;;;;;37.10;5.47;;;;;;;9.63;100.00;97863.72;6091244;23;20421;-89
2024/01/02 06:06:45;;;;;;;37.13;4.93;;;;;;;9.64;100.00;97865.31;6091304;23;20418;-89
2024/01/02 06:09:11;;;;;;;52.72;6.78;;;;;;;9.67;100.00;97859.06;6091140;23;20385;-89
2024/01/02 06:11:36;;;;;;;39.28;4.60;;;;;;;9.59;100.00;97846.13;6091192;23;20010;-89
2024/01/02 06:14:01;;;;;;;30.75;4.15;;;;;;;9.60;100.00;97842.59;6091348;23;20009;-90
2024/01/02 06:16:27;;;;;;;35.47;5.00;;;;;;;9.58;100.00;97844.47;6090813;23;20341;-89
2024/01/02 06:18:52;;;;;;;32.45;5.00;;;;;;;9.58;100.00;97829.03;6091533;23;20341;-89
2024/01/02 06:21:18;;;;;;;28.73;4.40;;;;;;;9.57;100.00;97824.84;6091161;23;20325;-86
2024/01/02 06:23:43;;;;;;;36.55;6.80;;;;;;;9.53;100.00;97826.91;6090899;23;20002;-87
2024/01/02 06:26:09;;;;;;;33.55;4.57;;;;;;;9.56;100.00;97815.50;6090545;23;20500;-88
2024/01/02 06:28:34;;;;;;;36.60;4.45;;;;;;;9.54;100.00;97804.56;6091426;23;20073;-89
2024/01/02 06:31:05;;;;;;;47.05;4.90;;;;;;;9.52;100.00;97798.72;6091968;23;20014;-88
2024/01/02 06:33:30;;;;;;;34.75;5.55;;;;;;;9.54;100.00;97801.97;6091864;23;20002;-87
2024/01/02 06:35:56;;;;;;;34.88;5.40;;;;;;;9.54;100.00;97791.69;6092136;23;20009;-87
2024/01/02 06:38:21;;;;;;;33.63;6.07;;;;;;;9.54;100.00;97781.38;6091834;23;20013;-87
2024/01/02 06:40:46;;;;;;;34.03;6.20;;;;;;;9.56;100.00;97784.59;6092365;23;20034;-86
2024/01/02 06:43:12;;;;;;;41.40;4.82;;;;;;;9.51;100.00;97771.34;6091888;23;20006;-87
2024/01/02 06:45:37;;;;;;;57.40;5.57;;;;;;;9.48;100.00;97766.50;6092150;23;20416;-88
2024/01/02 06:48:03;;;;;;;37.70;5.30;;;;;;;9.50;100.00;97760.25;6092441;23;20410;-88
2024/01/02 06:50:28;;;;;;;29.25;4.93;;;;;;;9.51;100.00;97755.91;6091708;23;20006;-88
2024/01/02 06:52:53;;;;;;;28.85;4.43;;;;;;;9.53;100.00;97751.41;6091717;23;20013;-88
2024/01/02 06:55:19;;;;;;;28.67;4.70;;;;;;;9.55;100.00;97742.59;6091589;23;20013;-89
2024/01/02 06:57:44;;;;;;;29.67;4.03;;;;;;;9.53;100.00;97728.25;6088175;23;20040;-89
2024/01/02 07:00:10;;;;;;;39.72;7.22;;;;;;;9.54;100.00;97729.88;6089527;23;20006;-88
2024/01/02 07:02:36;;;;;;;35.35;6.18;;;;;;;9.51;100.00;97727.59;6090642;23;20366;-88
2024/01/02 07:05:03;;;;;;;37.55;4.28;;;;;;;9.49;100.00;97726.94;6089308;23;20006;-88
2024/01/02 07:07:28;;;;;;;33.67;5.13;;;;;;;9.50;100.00;97728.56;6087773;23;20006;-89
2024/01/02 07:09:53;;;;;;;29.00;4.15;;;;;;;9.49;100.00;97711.50;6089861;23;20006;-89
2024/01/02 07:12:19;;;;;;;29.08;5.00;;;;;;;9.52;100.00;97719.72;6090879;23;20010;-90
2024/01/02 07:14:44;;;;;;;24.60;3.95;;;;;;;9.54;100.00;97714.44;6091997;23;20003;-89
2024/01/02 07:17:10;;;;;;;43.42;6.03;;;;;;;9.55;100.00;97705.75;6089735;23;20216;-90
2024/01/02 07:19:35;;;;;;;24.05;3.58;;;;;;;9.56;100.00;97700.44;6091923;23;20066;-90
2024/01/02 07:22:01;;;;;;;15.55;3.20;;;;;;;9.59;100.00;97691.63;6091917;23;20076;-89
2024/01/02 07:24:26;;;;;;;19.25;2.97;;;;;;;9.59;100.00;97681.31;6091956;23;20007;-89
2024/01/02 07:26:52;;;;;;;29.77;3.70;;;;;;;9.59;100.00;97681.31;6091009;23;20014;-89
2024/01/02 07:29:17;;;;;;;30.73;4.72;;;;;;;9.59;100.00;97681.31;6092942;23;19998;-88
2024/01/02 07:31:43;;;;;;;22.75;3.60;;;;;;;9.62;100.00;97686.97;6094633;23;20064;-89
2024/01/02 07:34:08;;;;;;;23.58;3.63;;;;;;;9.62;100.00;97670.72;6093768;23;20077;-89
2024/01/02 07:36:33;;;;;;;24.02;4.30;;;;;;;9.62;100.00;97661.22;6091574;23;20314;-89
2024/01/02 07:38:59;;;;;;;24.40;4.00;;;;;;;9.64;100.00;97653.34;6091859;23;20003;-89
2024/01/02 07:41:24;;;;;;;17.60;3.22;;;;;;;9.64;100.00;97654.16;6090892;23;20064;-89
2024/01/02 07:43:49;;;;;;;25.13;3.78;;;;;;;9.66;100.00;97641.13;6091825;23;20007;-88
2024/01/02 07:46:16;;;;;;;23.77;4.65;;;;;;;9.71;100.00;97626.03;6091811;23;20009;-89
2024/01/02 07:48:41;;;;;;;22.63;3.60;;;;;;;9.66;100.00;97620.53;6090234;23;20382;-88
2024/01/02 07:51:07;;;;;;;25.05;3.72;;;;;;;9.68;100.00;97615.22;6091695;23;20034;-88
2024/01/02 07:53:32;;;;;;;22.42;3.80;;;;;;;9.68;100.00;97608.31;6092283;23;20425;-89
2024/01/02 07:55:58;;;;;;;21.40;2.85;;;;;;;9.74;100.00;97602.53;6091354;23;20003;-88
2024/01/02 07:58:23;;;;;;;15.02;2.75;;;;;;;9.77;100.00;97591.13;6090075;23;20053;-88
2024/01/02 08:00:49;;;;;;;18.27;3.72;;;;;;;9.79;100.00;97592.59;6091797;23;20013;-87
2024/01/02 08:03:14;;;;;;;23.13;2.80;;;;;;;9.70;100.00;97584.97;6091760;23;20333;-88
2024/01/02 08:05:40;;;;;;;31.42;3.60;;;;;;;9.68;100.00;97574.84;6092090;23;20430;-88
2024/01/02 08:08:06;;;;;;;16.80;2.65;;;;;;;9.69;100.00;97563.56;6091840;23;20034;-88
2024/01/02 08:10:32;;;;;;;20.38;3.20;;;;;;;9.68;100.00;97541.34;6091737;23;20303;-87
2024/01/02 08:12:58;;;;;;;19.42;3.15;;;;;;;9.74;100.00;97545.88;6091072;23;20215;-88
2024/01/02 08:15:24;;;;;;;20.95;3.35;;;;;;;9.68;100.00;97535.38;6091532;23;20010;-88
2024/01/02 08:17:50;;;;;;;23.58;3.15;;;;;;;9.70;100.00;97529.09;6090316;23;20006;-88
2024/01/02 08:20:15;;;;;;;21.48;3.28;;;;;;;9.71;100.00;97520.44;6090324;23;20085;-90
2024/01/02 08:22:41;;;;;;;19.65;3.22;;;;;;;9.74;100.00;97514.16;6092314;23;20003;-88
2024/01/02 08:25:08;;;;;;;15.55;2.53;;;;;;;9.76;100.00;97505.31;6091879;23;20006;-87
2024/01/02 08:27:33;;;;;;;17.45;2.40;;;;;;;9.64;100.00;97498.84;6091023;23;20085;-87
2024/01/02 08:29:59;;;;;;;23.50;3.55;;;;;;;9.70;100.00;97485.31;6091409;23;20030;-89
2024/01/02 08:32:25;;;;;;;13.18;2.53;;;;;;;9.74;100.00;97465.22;6091118;23;20072;-88
2024/01/02 08:34:50;;;;;;;18.17;2.88;;;;;;;9.77;100.00;97454.63;6091463;23;20003;-88
2024/01/02 08:37:15;;;;;;;17.25;3.20;;;;;;;9.72;100.00;97449.94;6091608;23;20009;-87
2024/01/02 08:39:41;;;;;;;12.88;2.80;;;;;;;9.71;100.00;97438.03;6091904;23;20059;-89
2024/01/02 08:42:06;;;;;;;18.27;3.33;;;;;;;9.79;100.00;97440.63;6088809;23;20112;-89
2024/01/02 08:44:33;;;;;;;19.50;3.72;;;;;;;9.74;100.00;97437.69;6091548;23;20085;-90
2024/01/02 08:46:58;;;;;;;9.38;2.72;;;;;;;9.74;100.00;97419.69;6089930;23;20013;-90
2024/01/02 08:49:24;;;;;;;7.60;2.42;;;;;;;9.74;100.00;97411.94;6091724;23;20034;-94
2024/01/02 08:51:49;;;;;;;14.30;2.53;;;;;;;9.74;100.00;97396.50;6091226;23;20410;-90
2024/01/02 08:54:14;;;;;;;19.15;3.33;;;;;;;9.75;100.00;97385.22;6090204;23;20029;-89
2024/01/02 08:56:40;;;;;;;11.20;2.67;;;;;;;9.82;100.00;97372.53;6090677;23;20373;-90
2024/01/02 08:59:05;;;;;;;9.30;2.40;;;;;;;9.89;100.00;97375.28;6090028;23;20082;-89
2024/01/02 09:01:30;;;;;;;19.00;2.92;;;;;;;9.88;100.00;97371.09;6092179;23;20006;-89
2024/01/02 09:03:56;;;;;;;15.93;2.65;;;;;;;9.87;100.00;97367.69;6092038;23;20009;-90
2024/01/02 09:06:21;;;;;;;6.10;1.38;;;;;;;9.92;100.00;97354.34;6089604;23;20011;-90
2024/01/02 09:08:46;;;;;;;6.05;1.08;;;;;;;9.88;100.00;97342.75;6091400;23;20008;-89
2024/01/02 09:11:12;;;;;;;3.08;0.75;;;;;;;9.86;100.00;97333.41;6091012;23;20501;-90
2024/01/02 09:13:38;;;;;;;4.63;0.95;;;;;;;9.94;100.00;97324.06;6091797;23;20425;-91
2024/01/02 09:16:04;;;;;;;1.52;0.43;;;;;;;9.95;100.00;97311.03;6091416;23;20342;-94
2024/01/02 09:18:30;;;;;;;4.07;0.40;;;;;;;10.01;100.00;97325.03;6089923;23;20014;-89
2024/01/02 09:20:55;;;;;;;0.45;0.30;;;;;;;10.02;100.00;97306.03;6091718;23;19994;-95
2024/01/02 09:23:20;;;;;;;2.83;0.43;;;;;;;9.98;100.00;97284.94;6091738;23;20007;-92
2024/01/02 09:25:46;;;;;;;8.18;0.73;;;;;;;10.06;100.00;97284.13;6090920;23;20006;-89
2024/01/02 09:28:13;;;;;;;8.23;1.08;;;;;;;10.11;100.00;97263.84;6090803;23;20061;-94
2024/01/02 09:30:38;;;;;;;5.85;0.57;;;;;;;10.10;100.00;97245.97;6090426;23;20006;-92
2024/01/02 09:33:04;;;;;;;4.68;0.50;;;;;;;10.18;100.00;97233.06;6092050;23;20006;-93
2024/01/02 09:35:29;;;;;;;4.30;0.60;;;;;;;10.20;100.00;97220.81;6090133;23;20006;-94
2024/01/02 09:37:56;;;;;;;2.50;0.40;;;;;;;10.22;100.00;97209.38;6091565;23;20010;-90
2024/01/02 09:40:43;;;;;;;3.38;0.77;;;;;;;10.30;100.00;97187.97;6090618;23;20038;-89
2024/01/02 09:43:33;;;;;;;5.57;0.50;;;;;;;10.32;100.00;97167.97;6091597;23;20013;-89
2024/01/02 09:46:19;;;;;;;2.28;0.50;;;;;;;10.37;100.00;97162.34;6091273;23;20072;-90
2024/01/02 09:48:55;;;;;;;2.85;0.90;;;;;;;10.43;100.00;97152.13;6091251;23;19999;-89
2024/01/02 09:51:39;;;;;;;3.30;0.50;;;;;;;10.47;100.00;97153.41;6091125;23;20011;-89
2024/01/02 09:54:11;;;;;;;5.20;0.65;;;;;;;10.56;100.00;97141.28;6091348;23;20033;-88
2024/01/02 09:57:04;;;;;;;7.65;1.00;;;;;;;10.67;100.00;97135.75;6088124;23;20330;-87
2024/01/02 10:00:03;;;;;;;6.40;1.00;;;;;;;10.71;100.00;97118.97;6091063;23;20006;-88
2024/01/02 10:03:01;;;;;;;25.95;1.30;;;;;;;10.77;100.00;97120.03;6090827;23;20011;-87
2024/01/02 10:05:35;;;;;;;5.47;0.82;;;;;;;10.81;100.00;97105.03;6090895;23;20065;-88
2024/01/02 10:08:19;;;;;;;16.73;1.05;;;;;;;10.85;100.00;97103.72;6090938;23;20007;-88
2024/01/02 10:11:06;;;;;;;5.82;0.70;;;;;;;10.90;100.00;97098.84;6090437;23;20037;-89
2024/01/02 10:14:03;;;;;;;9.73;0.73;;;;;;;10.92;100.00;97096.88;6091134;23;20014;-86
2024/01/02 10:16:38;;;;;;;17.92;1.00;;;;;;;10.97;100.00;97073.94;6090955;23;20017;-86
2024/01/02 10:19:12;;;;;;;6.72;0.95;;;;;;;11.01;100.00;97082.16;6090895;23;20068;-86
2024/01/02 10:21:56;;;;;;;3.45;0.70;;;;;;;11.07;100.00;97069.38;6091119;23;20089;-86
2024/01/02 10:24:30;;;;;;;9.05;1.48;;;;;;;11.08;100.00;97062.44;6090997;23;20056;-88
2024/01/02 10:27:10;;;;;;;6.15;0.77;;;;;;;11.14;100.00;97048.81;6088510;23;20013;-88
2024/01/02 10:29:58;;;;;;;7.85;1.20;;;;;;;11.14;100.00;97057.38;6090892;23;20434;-88
2024/01/02 10:32:47;;;;;;;6.45;0.75;;;;;;;11.23;100.00;97045.19;6090521;23;20006;-87
2024/01/02 10:35:21;;;;;;;6.85;0.90;;;;;;;11.23;100.00;97031.47;6091221;23;20430;-87
2024/01/02 10:38:39;;;;;;;4.47;0.60;;;;;;;11.23;100.00;97026.31;6090886;23;20002;-87
2024/01/02 10:41:17;;;;;;;3.60;0.55;;;;;;;11.25;100.00;97014.03;6041497;23;20067;-88
2024/01/02 10:44:07;;;;;;;5.22;0.80;;;;;;;11.29;100.00;96995.44;6089332;23;20342;-87
2024/01/02 10:46:41;;;;;;;6.00;0.73;;;;;;;11.34;100.00;96987.16;6091066;23;20013;-87
2024/01/02 10:49:09;;;;;;;4.90;0.80;;;;;;;11.37;100.00;96991.97;6090775;23;19999;-87
2024/01/02 10:51:42;;;;;;;5.35;0.80;;;;;;;11.41;100.00;97000.97;6090485;23;20010;-87
2024/01/02 10:54:24;;;;;;;10.20;1.08;;;;;;;11.43;100.00;96985.28;6090822;23;20080;-87
2024/01/02 10:56:59;;;;;;;6.03;1.10;;;;;;;11.46;100.00;96956.50;6089741;23;20048;-88
2024/01/02 10:59:51;;;;;;;8.68;1.02;;;;;;;11.44;100.00;96961.09;6091178;23;20048;-89
2024/01/02 11:02:45;;;;;;;6.05;0.93;;;;;;;11.43;100.00;96949.94;6089273;23;20014;-89
2024/01/02 11:05:18;;;;;;;6.53;0.60;;;;;;;11.52;100.00;96935.94;6088965;23;20010;-87
2024/01/02 11:07:49;;;;;;;7.05;1.05;;;;;;;11.52;100.00;96933.38;6089286;23;20006;-88
2024/01/02 11:10:22;;;;;;;7.00;0.88;;;;;;;11.59;100.00;96930.06;6089745;23;20393;-88
2024/01/02 11:13:05;;;;;;;4.40;0.88;;;;;;;11.61;100.00;96918.56;6090899;23;20038;-88
2024/01/02 11:15:35;;;;;;;9.35;0.77;;;;;;;11.60;100.00;96926.50;6092070;23;20340;-89
2024/01/02 11:18:05;;;;;;;10.65;0.80;;;;;;;11.68;100.00;96903.97;6092821;23;20086;-90
2024/01/02 11:20:36;;;;;;;5.13;1.00;;;;;;;11.74;100.00;96889.50;6092953;23;20006;-90
2024/01/02 11:23:11;;;;;;;7.15;1.10;;;;;;;11.72;100.00;96891.47;6092517;23;20515;-90
2024/01/02 11:25:55;;;;;;;4.40;0.50;;;;;;;11.76;100.00;96872.03;6091205;23;20449;-90